Time;durP1;ratioP1;P1;durP2;ratioP2;P2;SDS_P1;SDS_P2;PMS_P1;PMS_P2;Temp;Humidity;BMP_temperature;BMP_pressure;BME280_temperature;BME280_humidity;BME280_pressure;Samples;Min_cycle;Max_cycle;Signal;HPM_P1;HPM_P2
2021/06/16 05:13:53;;;;;;;3.47;1.37;;;;;;;35.46;34.13;100376.56;1813001;79;21195;-66
2021/06/16 05:16:26;;;;;;;1.65;1.10;;;;;;;36.26;32.77;100377.06;1814089;79;21305;-66
2021/06/16 05:19:00;;;;;;;2.55;1.30;;;;;;;36.82;31.67;100378.11;1812575;79;21358;-65
2021/06/16 05:25:42;;;;;;;2.50;1.22;;;;;;;37.67;30.64;100381.56;1814327;79;21147;-63
2021/06/16 05:28:19;;;;;;;1.70;0.98;;;;;;;38.15;28.55;100383.04;1814014;79;21201;-63
2021/06/16 05:30:53;;;;;;;6.75;1.50;;;;;;;38.13;28.59;100383.92;1814354;79;21299;-62
2021/06/16 05:33:26;;;;;;;3.30;1.27;;;;;;;38.24;28.48;100381.70;1814040;79;21429;-60
2021/06/16 05:36:00;;;;;;;2.60;1.10;;;;;;;38.46;28.12;100381.64;1814120;79;21232;-64
2021/06/16 05:38:35;;;;;;;0.90;0.90;;;;;;;38.73;27.86;100386.09;1813773;79;21227;-64
2021/06/16 05:41:09;;;;;;;6.45;1.27;;;;;;;39.15;27.08;100392.73;1814304;79;22064;-66
2021/06/16 05:43:42;;;;;;;5.30;1.40;;;;;;;39.34;25.95;100390.50;1814163;79;21243;-64
2021/06/16 05:46:16;;;;;;;4.85;1.47;;;;;;;39.33;25.74;100393.80;1814353;79;21214;-65
2021/06/16 05:48:49;;;;;;;4.20;0.90;;;;;;;39.36;26.17;100396.45;1813912;79;21251;-67
2021/06/16 05:51:23;;;;;;;3.22;0.60;;;;;;;39.79;23.43;100384.89;1814471;79;21349;-68
2021/06/16 05:53:56;;;;;;;2.98;1.00;;;;;;;40.08;22.75;100388.25;1814058;79;22038;-65
2021/06/16 05:56:29;;;;;;;2.80;1.10;;;;;;;40.37;22.29;100384.17;1814343;79;21148;-64
2021/06/16 05:59:02;;;;;;;3.00;0.80;;;;;;;40.97;22.11;100391.52;1813976;79;21318;-64
2021/06/16 06:01:35;;;;;;;0.60;0.60;;;;;;;41.54;21.64;100387.55;1814100;79;21291;-62
2021/06/16 06:04:09;;;;;;;3.52;0.90;;;;;;;41.93;20.80;100393.05;1814180;79;21357;-63
2021/06/16 06:06:42;;;;;;;0.62;0.62;;;;;;;42.17;20.42;100389.55;1792478;79;21650;-65
2021/06/16 06:09:17;;;;;;;1.50;0.80;;;;;;;42.20;20.16;100384.15;1778854;80;21510;-60
2021/06/16 06:11:50;;;;;;;6.65;1.20;;;;;;;42.21;20.36;100387.70;1768662;81;21162;-62
2021/06/16 06:14:23;;;;;;;13.28;1.50;;;;;;;42.01;20.21;100388.60;1768429;81;22118;-65
2021/06/16 06:16:56;;;;;;;19.30;2.67;;;;;;;41.83;20.60;100383.05;1768745;81;21324;-68
2021/06/16 06:19:29;;;;;;;2.17;0.70;;;;;;;41.89;20.47;100385.27;1768273;81;21305;-65
2021/06/16 06:22:03;;;;;;;1.57;0.82;;;;;;;41.94;21.08;100388.36;1768446;81;21579;-66
2021/06/16 06:24:36;;;;;;;2.80;1.07;;;;;;;42.18;20.54;100385.66;1767918;81;21221;-67
2021/06/16 06:27:09;;;;;;;23.57;2.70;;;;;;;42.29;20.33;100384.05;1768265;81;21194;-70
2021/06/16 06:29:42;;;;;;;17.52;2.00;;;;;;;42.38;20.12;100391.61;1767566;81;21325;-65
2021/06/16 06:32:15;;;;;;;0.80;0.72;;;;;;;42.36;19.56;100396.66;1768258;81;22006;-67
2021/06/16 06:34:48;;;;;;;1.00;0.60;;;;;;;42.08;19.72;100398.46;1767802;81;21261;-64
2021/06/16 06:37:21;;;;;;;1.32;0.82;;;;;;;41.95;19.97;100402.33;1768139;81;21238;-68
2021/06/16 06:39:55;;;;;;;1.20;0.70;;;;;;;41.86;19.99;100407.13;1767874;81;21336;-68
2021/06/16 06:42:28;;;;;;;1.57;0.90;;;;;;;41.67;20.24;100405.45;1768169;81;21507;-70
2021/06/16 06:45:01;;;;;;;2.17;0.62;;;;;;;41.49;20.48;100413.05;1767868;81;21302;-66
2021/06/16 06:47:35;;;;;;;4.72;0.80;;;;;;;41.35;20.79;100412.55;1768187;81;21575;-66
2021/06/16 06:50:14;;;;;;;1.70;0.70;;;;;;;41.47;20.50;100416.16;1767705;81;22110;-71
2021/06/16 06:52:48;;;;;;;1.42;0.88;;;;;;;41.57;20.38;100415.73;1768773;81;21456;-67
2021/06/16 06:55:36;;;;;;;1.85;0.85;;;;;;;41.29;21.04;100416.66;1768025;81;21316;-66
2021/06/16 06:58:12;;;;;;;5.10;0.72;;;;;;;40.60;20.87;100421.22;1766387;81;21238;-65
2021/06/16 07:00:45;;;;;;;2.95;1.05;;;;;;;39.50;21.80;100419.81;1767187;81;21312;-67
2021/06/16 07:03:18;;;;;;;3.22;0.85;;;;;;;38.67;22.95;100421.55;1767013;81;21368;-66
2021/06/16 07:05:54;;;;;;;1.77;1.00;;;;;;;37.98;23.96;100416.31;1767452;81;21324;-66
2021/06/16 07:08:27;;;;;;;1.67;0.90;;;;;;;37.12;24.34;100417.02;1768171;81;21177;-69
2021/06/16 07:11:01;;;;;;;6.10;1.30;;;;;;;36.41;25.17;100417.66;1769733;80;21200;-67
2021/06/16 07:17:45;;;;;;;4.35;1.00;;;;;;;35.03;27.74;100424.30;1710694;83;21278;-68
2021/06/16 07:20:19;;;;;;;1.45;0.90;;;;;;;33.88;29.56;100424.44;1736686;82;21325;-67
2021/06/16 07:22:51;;;;;;;1.32;0.80;;;;;;;33.21;31.01;100425.73;1736794;82;21356;-68
2021/06/16 07:25:24;;;;;;;1.67;1.05;;;;;;;32.74;32.09;100422.16;1736769;82;21468;-67
2021/06/16 07:27:58;;;;;;;11.93;1.25;;;;;;;32.42;32.65;100431.98;1736838;82;21305;-70
2021/06/16 07:30:31;;;;;;;2.00;1.02;;;;;;;32.20;32.80;100432.84;1736724;82;21493;-68
2021/06/16 07:37:15;;;;;;;1.45;0.93;;;;;;;31.97;33.79;100436.13;1735655;82;21193;-69
2021/06/16 07:39:47;;;;;;;;;;;;;;;32.12;34.32;100437.48;1739682;82;21632;-65
2021/06/16 07:42:20;;;;;;;2.70;1.52;;;;;;;32.37;34.88;100440.66;1735618;82;20200;-63
2021/06/16 07:44:53;;;;;;;3.15;1.10;;;;;;;32.66;34.39;100440.34;1736800;82;21186;-67
2021/06/16 07:51:37;;;;;;;10.95;1.75;;;;;;;32.97;33.18;100450.51;1736038;80;21210;-63
2021/06/16 07:54:12;;;;;;;2.67;1.32;;;;;;;32.95;33.34;100445.91;1736953;82;22051;-68
2021/06/16 07:56:44;;;;;;;;;;;;;;;33.17;33.02;100440.95;1739008;82;21599;-71
2021/06/16 07:59:18;;;;;;;;;;;;;;;33.33;33.06;100436.23;1739632;82;20399;-66
2021/06/16 08:01:50;;;;;;;1.32;1.10;;;;;;;33.67;33.10;100422.99;1736050;82;20198;-65
2021/06/16 08:04:24;;;;;;;6.35;2.30;;;;;;;34.15;32.60;100422.59;1736877;82;21329;-67
2021/06/16 08:06:59;;;;;;;6.75;3.42;;;;;;;34.77;32.19;100424.34;1736516;82;21219;-70
2021/06/16 08:09:31;;;;;;;;;;;;;;;35.58;30.68;100424.59;1739606;82;21187;-65
2021/06/16 08:12:05;;;;;;;2.67;1.20;;;;;;;36.31;29.04;100429.58;1721820;82;20325;-65
2021/06/16 08:14:38;;;;;;;1.92;1.02;;;;;;;36.58;28.33;100432.90;1689798;85;21303;-59
2021/06/16 08:17:14;;;;;;;3.67;1.10;;;;;;;36.95;27.96;100435.41;1689265;85;21339;-62
2021/06/16 08:19:48;;;;;;;3.95;1.47;;;;;;;37.46;26.81;100433.73;1689816;85;22019;-66
2021/06/16 08:22:22;;;;;;;3.60;1.02;;;;;;;38.09;25.65;100436.27;1688946;85;21256;-64
2021/06/16 08:24:56;;;;;;;9.15;1.20;;;;;;;38.73;25.00;100436.16;1690823;85;21348;-60
2021/06/16 08:27:29;;;;;;;3.65;1.00;;;;;;;39.23;24.44;100429.72;1689276;85;21304;-61
2021/06/16 08:30:03;;;;;;;4.35;1.00;;;;;;;39.47;23.91;100433.34;1690000;85;21327;-66
2021/06/16 08:32:36;;;;;;;2.30;1.15;;;;;;;39.42;23.93;100435.68;1688984;85;21375;-66
2021/06/16 08:35:10;;;;;;;1.62;0.90;;;;;;;39.41;23.76;100436.02;1689719;85;22088;-61
2021/06/16 08:37:47;;;;;;;2.30;1.00;;;;;;;39.39;23.77;100435.51;1689288;85;21388;-61
2021/06/16 08:40:23;;;;;;;4.33;1.02;;;;;;;39.47;23.49;100428.67;1688496;83;21181;-67
2021/06/16 08:42:57;;;;;;;1.77;0.98;;;;;;;39.33;24.00;100431.34;1688861;85;21350;-62
2021/06/16 08:45:34;;;;;;;10.43;1.57;;;;;;;38.92;24.00;100414.78;1689992;85;21311;-64
2021/06/16 08:48:09;;;;;;;4.58;1.00;;;;;;;38.37;24.57;100412.27;1689321;85;21292;-66
2021/06/16 08:50:42;;;;;;;2.85;1.07;;;;;;;37.79;25.05;100417.32;1690935;85;21197;-67
2021/06/16 08:53:15;;;;;;;3.12;1.02;;;;;;;37.49;25.62;100418.09;1688899;85;21324;-64
2021/06/16 08:55:48;;;;;;;1.20;1.10;;;;;;;37.36;26.62;100424.92;1690057;85;21618;-66
2021/06/16 08:58:22;;;;;;;3.92;1.25;;;;;;;37.23;26.49;100427.16;1689285;85;21225;-69
2021/06/16 09:00:55;;;;;;;1.17;0.82;;;;;;;37.01;26.64;100439.66;1690037;85;21308;-65
2021/06/16 09:03:29;;;;;;;5.47;1.42;;;;;;;36.88;26.34;100430.89;1688748;85;21304;-67
2021/06/16 09:06:11;;;;;;;3.77;1.00;;;;;;;36.98;26.66;100435.35;1690036;85;21343;-68
2021/06/16 09:08:54;;;;;;;6.37;1.20;;;;;;;37.11;26.71;100440.80;1689251;85;22097;-70
2021/06/16 09:11:27;;;;;;;6.85;1.32;;;;;;;37.11;26.57;100430.43;1689927;85;22165;-66
2021/06/16 09:14:23;;;;;;;4.37;1.20;;;;;;;37.10;27.38;100432.34;1717570;82;21248;-65
2021/06/16 09:16:57;;;;;;;2.17;1.10;;;;;;;36.96;27.11;100436.22;1736954;82;21158;-67
2021/06/16 09:19:33;;;;;;;8.53;1.92;;;;;;;36.40;28.18;100440.58;1707214;82;21367;-72
2021/06/16 09:22:08;;;;;;;5.25;1.10;;;;;;;35.84;28.95;100443.49;1736953;82;21303;-65
2021/06/16 09:24:52;;;;;;;13.83;1.98;;;;;;;35.36;30.29;100442.05;1735492;82;21527;-66
2021/06/16 09:27:45;;;;;;;2.87;1.15;;;;;;;35.00;30.76;100453.41;1736859;82;21270;-65
2021/06/16 09:30:28;;;;;;;1.90;0.90;;;;;;;34.61;30.94;100449.30;1737088;82;21299;-66
2021/06/16 09:37:12;;;;;;;4.75;1.20;;;;;;;34.32;31.30;100445.23;1737005;82;21121;-64
2021/06/16 09:39:45;;;;;;;3.87;1.45;;;;;;;34.45;31.85;100434.48;1735793;82;21185;-66
2021/06/16 09:42:21;;;;;;;4.83;1.40;;;;;;;34.47;31.71;100432.28;1705962;82;21291;-63
2021/06/16 09:45:11;;;;;;;8.05;1.45;;;;;;;34.39;31.48;100418.52;1690601;82;21185;-62
2021/06/16 09:47:44;;;;;;;4.60;1.80;;;;;;;34.18;31.80;100419.84;1736906;82;21185;-64
2021/06/16 09:50:19;;;;;;;3.00;1.20;;;;;;;34.03;32.56;100414.52;1736932;82;21347;-65
2021/06/16 09:52:52;;;;;;;8.73;1.80;;;;;;;34.15;32.40;100412.26;1708537;82;21374;-66
2021/06/16 09:55:30;;;;;;;1.70;0.90;;;;;;;34.26;32.37;100411.05;1736873;82;21356;-67
2021/06/16 09:58:09;;;;;;;3.35;1.30;;;;;;;34.27;32.18;100410.74;1737028;82;21193;-68
2021/06/16 10:00:49;;;;;;;2.12;1.00;;;;;;;34.31;31.30;100413.70;1736920;82;21280;-68
2021/06/16 10:03:24;;;;;;;3.17;1.10;;;;;;;34.07;31.66;100419.13;1735941;82;22131;-63
2021/06/16 10:14:10;;;;;;;2.17;0.68;;;;;;;32.67;33.15;100412.69;1734176;82;21284;-65
2021/06/16 10:16:44;;;;;;;3.65;0.90;;;;;;;32.42;31.93;100408.13;1767040;80;21245;-63
2021/06/16 10:19:17;;;;;;;3.33;1.10;;;;;;;32.40;32.12;100400.83;1767965;81;22136;-67
2021/06/16 10:21:49;;;;;;;;;;;;;;;32.43;32.64;100399.72;1770931;81;21187;-64
2021/06/16 10:24:22;;;;;;;1.72;0.80;;;;;;;32.29;32.52;100394.61;1767385;81;20274;-66
2021/06/16 10:26:56;;;;;;;1.17;0.95;;;;;;;32.16;33.58;100396.56;1768295;81;21300;-66
2021/06/16 10:29:33;;;;;;;2.75;1.00;;;;;;;31.94;33.86;100384.65;1767775;81;21214;-69
2021/06/16 10:32:10;;;;;;;4.78;1.12;;;;;;;31.88;34.17;100387.64;1766346;81;21375;-67
2021/06/16 10:34:56;;;;;;;3.52;0.80;;;;;;;31.88;34.12;100382.23;1766304;81;21407;-62
2021/06/16 10:37:33;;;;;;;4.08;0.98;;;;;;;31.92;34.02;100394.13;1768285;81;21235;-67
2021/06/16 10:40:26;;;;;;;4.05;0.95;;;;;;;31.93;34.40;100397.91;1767515;81;21476;-61
2021/06/16 10:43:10;;;;;;;8.70;1.17;;;;;;;31.95;35.01;100397.12;1766909;81;21312;-62
2021/06/16 10:45:56;;;;;;;1.80;1.20;;;;;;;31.90;34.75;100401.72;1767165;81;22207;-62
2021/06/16 10:48:57;;;;;;;1.82;0.93;;;;;;;31.73;33.95;100403.89;1768133;81;21182;-63
2021/06/16 10:56:00;;;;;;;6.70;1.10;;;;;;;31.25;33.88;100406.53;1767095;81;22115;-64
2021/06/16 10:58:36;;;;;;;1.75;0.90;;;;;;;30.88;34.59;100405.88;1768082;81;21226;-64
2021/06/16 11:01:21;;;;;;;2.62;0.90;;;;;;;30.73;34.71;100414.73;1766993;81;21328;-63
2021/06/16 11:04:01;;;;;;;4.47;1.10;;;;;;;30.65;35.05;100416.05;1766745;81;21360;-64
2021/06/16 11:06:40;;;;;;;3.33;1.10;;;;;;;30.61;35.50;100424.95;1766597;81;21194;-65
2021/06/16 11:09:14;;;;;;;1.55;1.10;;;;;;;30.59;35.90;100427.89;1768026;81;21197;-61
2021/06/16 11:12:04;;;;;;;6.85;1.75;;;;;;;30.58;35.89;100422.77;1768355;81;21308;-64
2021/06/16 11:14:44;;;;;;;1.00;0.93;;;;;;;30.53;36.07;100433.02;1766607;81;21210;-68
2021/06/16 11:17:36;;;;;;;1.60;0.80;;;;;;;30.45;35.62;100430.01;1766120;81;21348;-67
2021/06/16 11:20:24;;;;;;;5.08;1.27;;;;;;;30.34;35.70;100430.48;1766666;81;21384;-66
2021/06/16 11:23:02;;;;;;;1.22;0.90;;;;;;;30.23;35.91;100432.81;1768171;81;21374;-62
2021/06/16 11:25:40;;;;;;;2.05;1.02;;;;;;;30.25;35.82;100432.55;1766551;81;21456;-65
2021/06/16 11:28:22;;;;;;;5.33;1.27;;;;;;;30.34;35.47;100431.00;1768559;81;21312;-60
2021/06/16 11:31:05;;;;;;;1.63;1.00;;;;;;;30.45;35.48;100428.66;1746450;81;21344;-62
2021/06/16 11:33:45;;;;;;;1.00;0.67;;;;;;;30.53;34.84;100437.06;1768460;81;21478;-61
2021/06/16 11:36:27;;;;;;;3.92;1.10;;;;;;;30.58;34.88;100440.33;1767261;81;21265;-63
2021/06/16 11:43:09;;;;;;;5.45;1.07;;;;;;;30.63;33.70;100437.66;1768294;81;21425;-63
2021/06/16 11:45:44;;;;;;;2.50;0.88;;;;;;;30.56;33.01;100435.73;1766825;81;21595;-63
2021/06/16 11:48:18;;;;;;;0.80;0.80;;;;;;;30.55;33.41;100432.20;1739391;81;21308;-64
2021/06/16 11:50:52;;;;;;;1.30;1.00;;;;;;;30.63;34.00;100433.60;1767751;81;21344;-68
2021/06/16 11:53:32;;;;;;;5.45;1.45;;;;;;;30.73;34.07;100429.60;1768378;81;21568;-64
2021/06/16 11:56:08;;;;;;;2.02;1.02;;;;;;;30.76;34.71;100429.61;1766865;81;21312;-66
2021/06/16 11:58:43;;;;;;;1.67;0.90;;;;;;;30.80;34.04;100417.19;1766961;81;21186;-65
2021/06/16 12:01:17;;;;;;;1.22;0.90;;;;;;;30.81;33.97;100403.95;1767675;81;21586;-68
2021/06/16 12:04:01;;;;;;;1.07;0.70;;;;;;;30.73;34.13;100405.27;1766698;81;21491;-68
2021/06/16 12:06:35;;;;;;;5.25;1.10;;;;;;;30.69;34.92;100404.72;1767457;81;21469;-68
2021/06/16 12:09:08;;;;;;;4.72;0.98;;;;;;;30.63;35.17;100406.58;1768034;81;21515;-66
2021/06/16 12:11:42;;;;;;;2.75;0.90;;;;;;;30.57;35.19;100411.70;1766975;81;21402;-67
2021/06/16 12:14:16;;;;;;;2.60;1.00;;;;;;;30.52;35.56;100406.27;1767993;81;21760;-65
2021/06/16 12:16:51;;;;;;;5.30;1.37;;;;;;;30.49;35.31;100408.95;1767217;81;21206;-63
2021/06/16 12:19:25;;;;;;;1.65;0.90;;;;;;;30.37;35.65;100407.53;1769068;81;21326;-68
2021/06/16 12:22:05;;;;;;;;;;;;;;;30.29;36.12;100407.45;1738753;82;21375;-70
2021/06/16 12:24:41;;;;;;;4.00;1.05;;;;;;;30.26;36.28;100405.83;1701890;84;20235;-61
2021/06/16 12:27:16;;;;;;;2.12;0.88;;;;;;;30.21;36.63;100410.66;1723227;83;21395;-69
2021/06/16 12:29:53;;;;;;;1.85;1.00;;;;;;;30.22;36.42;100406.05;1724071;83;21312;-66
2021/06/16 12:32:38;;;;;;;7.25;1.60;;;;;;;30.25;36.28;100408.23;1723241;83;21403;-67
2021/06/16 12:35:28;;;;;;;4.58;1.40;;;;;;;30.29;36.68;100406.63;1723909;83;21340;-69
2021/06/16 12:38:02;;;;;;;3.30;1.07;;;;;;;30.28;37.07;100405.02;1723907;83;21675;-68
2021/06/16 12:40:40;;;;;;;2.22;1.20;;;;;;;30.26;37.46;100397.72;1724048;83;21344;-70
2021/06/16 12:47:27;;;;;;;1.02;0.95;;;;;;;30.37;37.52;100385.92;1723374;81;22007;-67
2021/06/16 12:50:01;;;;;;;5.53;1.35;;;;;;;30.54;37.02;100379.27;1724140;83;22080;-67
2021/06/16 12:52:38;;;;;;;1.55;1.00;;;;;;;30.63;36.59;100371.45;1722635;83;21209;-68
2021/06/16 12:55:13;;;;;;;4.33;1.55;;;;;;;30.69;36.54;100369.59;1724272;83;21166;-68
2021/06/16 12:57:51;;;;;;;1.47;1.00;;;;;;;30.74;37.20;100367.69;1723375;83;21598;-69
2021/06/16 13:00:28;;;;;;;2.83;1.12;;;;;;;30.77;37.61;100373.92;1724239;83;21393;-68
2021/06/16 13:03:27;;;;;;;1.85;1.20;;;;;;;30.75;38.19;100369.86;1723258;83;21246;-66
2021/06/16 13:06:05;;;;;;;2.77;1.40;;;;;;;30.75;38.34;100358.52;1724134;83;21501;-70
2021/06/16 13:08:43;;;;;;;1.92;1.20;;;;;;;30.70;37.04;100358.50;1723065;83;21225;-70
2021/06/16 13:11:31;;;;;;;8.75;1.57;;;;;;;30.70;37.04;100358.50;1724302;83;21201;-67
2021/06/16 13:14:30;;;;;;;9.20;1.20;;;;;;;30.67;36.73;100349.56;1724095;83;21564;-68
2021/06/16 13:17:07;;;;;;;3.65;0.88;;;;;;;30.61;36.20;100343.88;1722452;83;21483;-69
2021/06/16 13:20:00;;;;;;;1.50;1.00;;;;;;;30.53;36.82;100339.80;1724128;83;21409;-69
2021/06/16 13:22:41;;;;;;;2.98;1.20;;;;;;;30.46;37.00;100335.71;1723650;83;21374;-67
2021/06/16 13:25:29;;;;;;;4.33;1.00;;;;;;;30.39;37.12;100337.84;1724168;83;21633;-64
2021/06/16 13:28:02;;;;;;;4.25;1.22;;;;;;;30.34;37.61;100324.31;1723335;83;21320;-65
2021/06/16 13:30:39;;;;;;;4.12;1.60;;;;;;;30.33;37.54;100327.55;1724024;83;21193;-68
2021/06/16 13:37:21;;;;;;;2.55;1.27;;;;;;;30.30;38.24;100334.00;1723437;81;21486;-70
